Houghton Lake Heights, MI

1:39 AM EDT on July 31, 2015 (GMT -0400)
W. Shore of Houghton Lake | | Change Station
CLOSE
Current Station
Personal Weather Station
Location: Houghton Lake, MI
Elevation: 1138 ft
Nearby Weather Stations

Elev 1138 ft 44.34 °N, 84.79 °W | Updated 2 minutes ago

Clear
Clear
63.5 °F
Feels Like 63.5 °F
N
0.0
Wind Variable Wind from SW

Today
High -- | Low -- °F
--% Chance of Precip.
Yesterday
High -- | Low -- °F
Precip. -- in
6:24 AM 9:05 PM
Full, 100% visible
Pressure 29.92 in
Visibility 10.0 miles
Clouds Clear
Dew Point 59 °F
Humidity 85%
Rainfall 0.00 in
Snow Depth Not available.
UV 0 out of 12
Pollen 7.20 out of 12
Air Quality Not available.
Flu Activity Not available.
METAR KHTL 310453Z AUTO 28008KT 10SM CLR 21/14 A2994 RMK AO2 SLP131 T02060139 402890161

More Conditions Fewer Conditions

Pressure 29.92 in
Visibility 10.0 miles
Clouds Clear
Dew Point 59 °F
Humidity 85%
Rainfall 0.00 in
Snow Depth Not available.
UV 0 out of 12
Pollen 7.20 out of 12
Air Quality Not available.
Flu Activity Not available.
METAR KHTL 310453Z AUTO 28008KT 10SM CLR 21/14 A2994 RMK AO2 SLP131 T02060139 402890161

More Conditions Fewer Conditions

Nowcast | as of 1:00 am EDT on July 31, 2015

At 2 am...mostly clear. Temperature 62. West winds 5 mph. At 4 am...mostly clear. Temperature 60. West winds 5 mph. At 6 am...mostly clear. Temperature 60. West winds 6 mph. At 8 am...mostly clear. Temperature 67. West winds 7 mph.

×

10-Day Weather Forecast

×

Almanac

Astronomy

Jul. 31, 2015 Rise Set
Actual Time
Civil Twilight
Nautical Twilight
Astronomical Twilight
Moon
Length of Visible Light
Length of Day
Tomorrow will be .
, % of the Moon is Illuminated

Today's Extremes

State Highs State Lows

Community

WunderPhotos

Upload Photos

1,842,618 photos uploaded!

WunderBlogs® & News

Nearby

Air Quality

  Air Quality AQ Index Pollutant
Not available.

Snow Depth

Station Depth Elevation

Earthquake Activity

City Distance Mag. Time & Date
Minimum magnitude displayed is 2.5.

Coastal Water Temperatures

Place Temperature

Stations

Nearby Weather Stations

Station Location Temp. Windchill Dew Point Humidity Wind Precip. Elev Updated Type